Time;durP1;ratioP1;P1;durP2;ratioP2;P2;SDS_P1;SDS_P2;PMS_P1;PMS_P2;Temp;Humidity;BMP_temperature;BMP_pressure;BME280_temperature;BME280_humidity;BME280_pressure;Samples;Min_cycle;Max_cycle;Signal;HPM_P1;HPM_P2
2021/10/07 00:02:23;;;;;;;13.68;2.97;;;;;;;12.39;100.00;102420.28;4946999;28;20487;-74
2021/10/07 00:04:53;;;;;;;8.48;3.38;;;;;;;12.38;100.00;102422.97;4945496;28;20050;-73
2021/10/07 00:07:20;;;;;;;11.35;3.03;;;;;;;12.33;100.00;102420.38;4949988;28;20055;-72
2021/10/07 00:09:48;;;;;;;18.58;3.50;;;;;;;12.32;100.00;102410.56;4942966;28;20367;-72
2021/10/07 00:12:17;;;;;;;9.70;2.92;;;;;;;12.33;100.00;102415.91;4943620;28;20334;-71
2021/10/07 00:14:46;;;;;;;8.38;2.75;;;;;;;12.30;100.00;102429.31;4952582;28;20731;-73
2021/10/07 00:17:14;;;;;;;11.30;2.92;;;;;;;12.29;100.00;102421.31;4948843;28;20514;-70
2021/10/07 00:19:42;;;;;;;8.45;3.33;;;;;;;12.25;100.00;102428.50;4950331;28;20149;-70
2021/10/07 00:22:12;;;;;;;9.82;2.80;;;;;;;12.23;100.00;102432.13;4943132;28;20043;-72
2021/10/07 00:24:40;;;;;;;16.63;2.80;;;;;;;12.15;100.00;102432.22;4948920;28;20512;-72
2021/10/07 00:27:08;;;;;;;7.38;3.00;;;;;;;12.08;100.00;102438.56;4947755;28;20106;-72
2021/10/07 00:29:41;;;;;;;7.68;2.92;;;;;;;11.98;100.00;102435.09;4947868;28;20141;-72
2021/10/07 00:32:14;;;;;;;8.60;2.45;;;;;;;11.95;100.00;102440.47;4948609;28;20050;-72
2021/10/07 00:35:00;;;;;;;9.75;3.97;;;;;;;11.89;100.00;102440.53;4942854;28;20062;-72
2021/10/07 00:40:14;;;;;;;8.77;2.75;;;;;;;11.77;100.00;102441.56;4942544;28;20351;-71
2021/10/07 00:42:42;;;;;;;9.50;2.70;;;;;;;11.71;100.00;102439.88;4946021;28;20135;-71
2021/10/07 00:45:16;;;;;;;11.52;2.72;;;;;;;11.69;100.00;102440.78;4954344;28;20133;-71
2021/10/07 00:47:44;;;;;;;10.13;3.05;;;;;;;11.66;100.00;102443.47;4941114;28;20055;-71
2021/10/07 00:50:12;;;;;;;10.18;3.15;;;;;;;11.67;100.00;102443.47;4948137;28;20134;-71
2021/10/07 00:52:42;;;;;;;10.15;2.72;;;;;;;11.68;100.00;102444.34;4945301;28;20050;-71
2021/10/07 00:55:13;;;;;;;10.60;2.83;;;;;;;11.68;100.00;102449.69;4947345;28;20102;-71
2021/10/07 00:57:43;;;;;;;8.02;2.78;;;;;;;11.69;100.00;102448.78;4950189;28;20058;-71
2021/10/07 01:00:12;;;;;;;11.40;2.80;;;;;;;11.70;100.00;102440.75;4945501;28;20079;-71
2021/10/07 01:02:39;;;;;;;9.27;2.80;;;;;;;11.71;100.00;102447.88;4949971;28;20125;-71
2021/10/07 01:05:09;;;;;;;8.63;3.47;;;;;;;11.71;100.00;102450.56;4945251;28;20046;-68
2021/10/07 01:07:36;;;;;;;10.80;3.30;;;;;;;11.75;100.00;102448.75;4946324;28;20130;-68
2021/10/07 01:10:07;;;;;;;12.38;3.80;;;;;;;11.80;100.00;102457.59;4952119;28;20054;-68
2021/10/07 01:12:34;;;;;;;10.70;3.60;;;;;;;11.78;100.00;102462.97;4937566;28;20077;-69
2021/10/07 01:15:02;;;;;;;8.70;3.58;;;;;;;11.81;100.00;102461.13;4946819;28;20133;-68
2021/10/07 01:17:32;;;;;;;8.38;3.10;;;;;;;11.80;100.00;102472.72;4945097;28;20058;-67
2021/10/07 01:20:04;;;;;;;12.10;3.47;;;;;;;11.80;100.00;102467.38;4947303;28;20058;-68
2021/10/07 01:22:33;;;;;;;14.05;4.00;;;;;;;11.76;100.00;102470.13;4951519;28;20109;-68
2021/10/07 01:25:01;;;;;;;9.30;3.63;;;;;;;11.74;100.00;102469.22;4936109;28;20049;-68
2021/10/07 01:27:33;;;;;;;9.52;2.83;;;;;;;11.74;100.00;102468.34;4947784;28;20130;-67
2021/10/07 01:30:04;;;;;;;10.75;3.85;;;;;;;11.72;100.00;102470.16;4941749;28;20065;-67
2021/10/07 01:32:35;;;;;;;12.90;3.55;;;;;;;11.70;100.00;102483.53;4947110;28;20109;-67
2021/10/07 01:35:05;;;;;;;10.13;3.70;;;;;;;11.71;100.00;102479.97;4944653;28;20051;-67
2021/10/07 01:37:34;;;;;;;13.55;4.00;;;;;;;11.68;100.00;102488.03;4943622;28;20061;-67
2021/10/07 01:40:02;;;;;;;14.40;3.45;;;;;;;11.69;100.00;102481.75;4949241;28;20055;-70
2021/10/07 01:42:31;;;;;;;11.38;3.42;;;;;;;11.67;100.00;102490.72;4937883;28;20234;-69
2021/10/07 01:44:59;;;;;;;9.27;3.42;;;;;;;11.67;100.00;102485.38;4947150;28;20469;-67
2021/10/07 01:47:26;;;;;;;9.70;3.30;;;;;;;11.66;100.00;102487.13;4945901;28;20050;-67
2021/10/07 01:49:54;;;;;;;10.15;3.30;;;;;;;11.67;100.00;102498.72;4944154;28;20145;-67
2021/10/07 01:52:23;;;;;;;9.43;3.22;;;;;;;11.65;100.00;102503.22;4943889;28;20760;-67
2021/10/07 01:54:51;;;;;;;11.07;2.97;;;;;;;11.63;100.00;102489.88;4946355;28;20051;-67
2021/10/07 01:57:19;;;;;;;7.95;3.05;;;;;;;11.61;100.00;102499.66;4942087;28;20134;-67
2021/10/07 01:59:47;;;;;;;7.95;3.17;;;;;;;11.62;100.00;102508.59;4940946;28;20061;-67
2021/10/07 02:02:15;;;;;;;11.35;3.08;;;;;;;11.62;100.00;102504.13;4942999;28;20074;-67
2021/10/07 02:04:44;;;;;;;10.93;4.43;;;;;;;11.64;100.00;102509.44;4949633;28;20051;-67
2021/10/07 02:07:12;;;;;;;10.80;3.50;;;;;;;11.62;100.00;102508.59;4948334;28;20047;-67
2021/10/07 02:09:41;;;;;;;9.93;3.42;;;;;;;11.63;100.00;102508.56;4948698;28;20070;-67
2021/10/07 02:12:09;;;;;;;12.30;3.33;;;;;;;11.65;100.00;102508.56;4945599;28;20046;-69
2021/10/07 02:14:37;;;;;;;13.32;3.10;;;;;;;11.65;100.00;102512.13;4943205;28;20210;-69
2021/10/07 02:17:05;;;;;;;8.95;3.28;;;;;;;11.68;100.00;102521.88;4947994;28;20673;-69
2021/10/07 02:19:57;;;;;;;11.30;4.00;;;;;;;11.68;100.00;102521.88;4950602;28;20057;-69
2021/10/07 02:22:24;;;;;;;12.45;3.33;;;;;;;11.69;100.00;102518.31;4948581;28;20138;-69
2021/10/07 02:24:54;;;;;;;11.68;3.50;;;;;;;11.68;100.00;102527.22;4947915;28;20333;-70
2021/10/07 02:27:21;;;;;;;15.60;3.95;;;;;;;11.69;100.00;102521.00;4947080;28;20055;-70
2021/10/07 02:29:49;;;;;;;9.60;3.95;;;;;;;11.71;100.00;102524.53;4948571;28;20142;-67
2021/10/07 02:32:17;;;;;;;12.00;3.72;;;;;;;11.71;100.00;102517.41;4952922;28;20079;-68
2021/10/07 02:34:45;;;;;;;9.70;3.95;;;;;;;11.73;100.00;102530.75;4949406;28;20418;-68
2021/10/07 02:37:13;;;;;;;12.50;3.58;;;;;;;11.72;100.00;102531.66;4947019;28;21095;-68
2021/10/07 02:39:41;;;;;;;11.10;3.38;;;;;;;11.71;100.00;102525.44;4946501;28;20458;-72
2021/10/07 02:42:10;;;;;;;13.75;3.70;;;;;;;11.72;100.00;102527.19;4950517;28;20142;-73
2021/10/07 02:44:38;;;;;;;13.25;3.45;;;;;;;11.74;100.00;102528.06;4950423;28;20133;-72
2021/10/07 02:47:06;;;;;;;13.90;3.90;;;;;;;11.82;100.00;102519.97;4949810;28;20058;-72
2021/10/07 02:49:34;;;;;;;7.90;3.42;;;;;;;11.84;100.00;102519.94;4945670;28;20084;-73
2021/10/07 02:52:01;;;;;;;11.48;3.17;;;;;;;11.82;100.00;102527.13;4948932;28;20050;-72
2021/10/07 02:54:29;;;;;;;10.95;3.25;;;;;;;11.84;100.00;102526.19;4943756;28;20751;-73
2021/10/07 02:56:57;;;;;;;15.50;4.00;;;;;;;11.86;100.00;102527.03;4950377;28;20146;-74
2021/10/07 02:59:27;;;;;;;16.95;3.60;;;;;;;11.88;100.00;102527.91;4946716;28;20058;-74
2021/10/07 03:01:55;;;;;;;11.40;3.22;;;;;;;11.86;100.00;102528.84;4947048;28;20177;-73
2021/10/07 03:04:24;;;;;;;9.90;3.20;;;;;;;11.86;100.00;102535.06;4952021;28;20051;-73
2021/10/07 03:06:56;;;;;;;8.88;3.72;;;;;;;11.85;100.00;102538.66;4947215;28;20062;-73
2021/10/07 03:09:24;;;;;;;9.27;3.40;;;;;;;11.84;100.00;102536.00;4948334;28;20435;-73
2021/10/07 03:11:52;;;;;;;13.50;3.47;;;;;;;11.83;100.00;102543.13;4942406;28;20117;-73
2021/10/07 03:14:20;;;;;;;11.07;3.50;;;;;;;11.84;100.00;102538.69;4951668;28;20051;-72
2021/10/07 03:16:49;;;;;;;8.00;3.38;;;;;;;11.83;100.00;102545.78;4953196;28;20403;-72
2021/10/07 03:19:17;;;;;;;9.82;3.50;;;;;;;11.84;100.00;102544.03;4943554;28;20177;-72
2021/10/07 03:21:45;;;;;;;11.05;3.35;;;;;;;11.85;100.00;102552.03;4951397;28;20047;-71
2021/10/07 03:24:13;;;;;;;11.60;4.65;;;;;;;11.86;100.00;102555.59;4950384;28;20047;-72
2021/10/07 03:26:41;;;;;;;11.98;3.47;;;;;;;11.85;100.00;102552.03;4951373;28;20078;-72
2021/10/07 03:29:09;;;;;;;11.57;3.33;;;;;;;11.84;100.00;102549.38;4951364;28;20198;-72
2021/10/07 03:31:37;;;;;;;10.90;3.47;;;;;;;11.83;100.00;102550.25;4946272;28;20050;-71
2021/10/07 03:34:06;;;;;;;11.77;3.58;;;;;;;11.80;100.00;102564.56;4950400;28;20316;-72
2021/10/07 03:36:34;;;;;;;9.88;3.90;;;;;;;11.79;100.00;102565.47;4945135;28;20106;-71
2021/10/07 03:39:02;;;;;;;12.25;3.75;;;;;;;11.78;100.00;102569.94;4947640;28;20102;-71
2021/10/07 03:41:30;;;;;;;8.10;3.60;;;;;;;11.78;100.00;102569.03;4951857;28;20058;-71
2021/10/07 03:43:57;;;;;;;11.02;3.38;;;;;;;11.77;100.00;102562.78;4942979;28;20064;-71
2021/10/07 03:46:25;;;;;;;11.55;3.50;;;;;;;11.75;100.00;102566.41;4948514;28;20290;-71
2021/10/07 03:48:53;;;;;;;11.80;3.60;;;;;;;11.74;100.00;102572.63;4947035;28;20054;-71
2021/10/07 03:51:22;;;;;;;11.20;3.60;;;;;;;11.73;100.00;102576.19;4948945;28;20046;-70
2021/10/07 03:53:50;;;;;;;11.93;3.90;;;;;;;11.69;100.00;102571.78;4947628;28;20047;-71
2021/10/07 03:56:18;;;;;;;8.95;3.22;;;;;;;11.70;100.00;102573.59;4941949;28;20062;-71
2021/10/07 03:58:46;;;;;;;10.98;4.32;;;;;;;11.69;100.00;102575.34;4947309;28;20142;-70
2021/10/07 04:01:15;;;;;;;10.50;3.70;;;;;;;11.69;100.00;102582.50;4947000;28;20526;-70
2021/10/07 04:03:44;;;;;;;12.18;3.42;;;;;;;11.69;100.00;102580.69;4949568;28;20058;-71
2021/10/07 04:06:12;;;;;;;11.10;3.53;;;;;;;11.70;100.00;102587.81;4949103;28;20142;-70
2021/10/07 04:08:41;;;;;;;10.20;3.60;;;;;;;11.70;100.00;102590.50;4942051;28;20563;-70
2021/10/07 04:11:09;;;;;;;9.07;3.42;;;;;;;11.72;100.00;102598.50;4944673;28;20086;-70
2021/10/07 04:13:38;;;;;;;10.57;3.35;;;;;;;11.72;100.00;102602.06;4945430;28;20081;-70
2021/10/07 04:16:06;;;;;;;14.88;4.18;;;;;;;11.72;100.00;102594.03;4944836;28;20537;-70
2021/10/07 04:18:35;;;;;;;9.23;3.42;;;;;;;11.72;100.00;102601.19;4950539;28;20776;-69
2021/10/07 04:21:03;;;;;;;10.88;3.63;;;;;;;11.70;100.00;102601.19;4942322;28;20854;-69
2021/10/07 04:23:31;;;;;;;10.68;3.35;;;;;;;11.71;100.00;102602.06;4953468;28;20158;-69
2021/10/07 04:26:00;;;;;;;8.77;3.35;;;;;;;11.70;100.00;102611.03;4939889;28;20510;-71
2021/10/07 04:28:28;;;;;;;10.80;3.42;;;;;;;11.72;100.00;102609.22;4951457;28;20146;-67
2021/10/07 04:30:56;;;;;;;9.93;3.50;;;;;;;11.73;100.00;102602.94;4944166;28;20078;-69
2021/10/07 04:33:24;;;;;;;14.75;4.10;;;;;;;11.73;100.00;102606.53;4948855;28;20058;-67
2021/10/07 04:35:52;;;;;;;9.93;3.55;;;;;;;11.76;100.00;102610.94;4944383;28;20083;-68
2021/10/07 04:38:20;;;;;;;12.45;4.22;;;;;;;11.74;100.00;102604.72;4948245;28;20070;-67
2021/10/07 04:40:48;;;;;;;12.80;4.05;;;;;;;11.73;100.00;102609.19;4942529;28;20546;-68
2021/10/07 04:43:21;;;;;;;9.82;3.95;;;;;;;11.73;100.00;102616.31;4949598;28;20058;-68
2021/10/07 04:45:48;;;;;;;9.77;3.55;;;;;;;11.72;100.00;102609.22;4948176;28;20480;-68
2021/10/07 04:48:16;;;;;;;11.48;4.28;;;;;;;11.74;100.00;102618.97;4942370;28;20129;-67
2021/10/07 04:50:44;;;;;;;14.98;3.95;;;;;;;11.73;100.00;102621.66;4948059;28;20480;-68
2021/10/07 04:53:12;;;;;;;12.13;4.18;;;;;;;11.72;100.00;102615.44;4941593;28;20625;-68
2021/10/07 04:55:40;;;;;;;11.57;4.07;;;;;;;11.73;100.00;102613.63;4950740;28;20051;-69
2021/10/07 04:58:08;;;;;;;11.48;3.85;;;;;;;11.73;100.00;102617.22;4940517;28;20180;-69
2021/10/07 05:00:37;;;;;;;13.10;4.53;;;;;;;11.73;100.00;102618.97;4949373;28;20355;-68
2021/10/07 05:03:05;;;;;;;13.02;3.90;;;;;;;11.71;100.00;102618.13;4946701;28;20058;-68
2021/10/07 05:05:33;;;;;;;9.02;3.92;;;;;;;11.71;100.00;102624.38;4948029;28;20055;-68
2021/10/07 05:08:01;;;;;;;10.43;4.22;;;;;;;11.72;100.00;102625.25;4948212;28;20499;-68
2021/10/07 05:10:29;;;;;;;9.05;3.63;;;;;;;11.71;100.00;102627.06;4944371;28;20276;-68
2021/10/07 05:12:57;;;;;;;10.73;3.33;;;;;;;11.70;100.00;102625.25;4943612;28;20145;-68
2021/10/07 05:15:26;;;;;;;9.35;3.70;;;;;;;11.72;100.00;102631.47;4947383;28;20558;-68
2021/10/07 05:17:56;;;;;;;9.73;4.03;;;;;;;11.70;100.00;102635.97;4946778;28;20898;-68
2021/10/07 05:20:25;;;;;;;14.52;4.50;;;;;;;11.67;100.00;102635.09;4951136;28;20050;-68
2021/10/07 05:22:52;;;;;;;8.32;3.50;;;;;;;11.65;100.00;102645.81;4939195;28;20061;-68
2021/10/07 05:25:20;;;;;;;14.10;4.10;;;;;;;11.60;100.00;102634.25;4949140;28;20066;-68
2021/10/07 05:27:48;;;;;;;12.07;3.95;;;;;;;11.57;100.00;102637.84;4946614;28;20452;-68
2021/10/07 05:30:16;;;;;;;9.93;3.55;;;;;;;11.53;100.00;102641.44;4946264;28;20149;-68
2021/10/07 05:32:45;;;;;;;11.43;4.10;;;;;;;11.51;100.00;102637.91;4948542;28;20054;-68
2021/10/07 05:35:15;;;;;;;7.55;3.80;;;;;;;11.48;100.00;102645.94;4941098;28;20105;-68
2021/10/07 05:37:42;;;;;;;12.65;5.10;;;;;;;11.44;100.00;102656.66;4945505;28;20141;-69
2021/10/07 05:40:12;;;;;;;16.45;4.78;;;;;;;11.42;100.00;102651.31;4946483;28;20051;-68
2021/10/07 05:42:41;;;;;;;12.77;4.90;;;;;;;11.40;100.00;102659.34;4947216;28;20059;-68
2021/10/07 05:45:10;;;;;;;15.93;5.80;;;;;;;11.38;100.00;102654.91;4949920;28;20061;-68
2021/10/07 05:47:39;;;;;;;11.65;5.22;;;;;;;11.34;100.00;102659.41;4941288;28;20039;-68
2021/10/07 05:50:09;;;;;;;12.02;4.88;;;;;;;11.33;100.00;102659.41;4948166;28;20055;-68
2021/10/07 05:52:39;;;;;;;11.18;4.53;;;;;;;11.28;100.00;102658.53;4943950;28;20587;-68
2021/10/07 05:55:08;;;;;;;10.40;4.47;;;;;;;11.24;100.00;102660.34;4939829;28;20255;-69
2021/10/07 05:57:36;;;;;;;11.40;4.07;;;;;;;11.17;100.00;102662.16;4949370;28;20307;-69
2021/10/07 06:00:06;;;;;;;10.00;4.03;;;;;;;11.14;100.00;102661.31;4937011;28;20117;-69
2021/10/07 06:02:35;;;;;;;9.98;4.05;;;;;;;11.09;100.00;102665.78;4941757;28;20066;-71
2021/10/07 06:05:04;;;;;;;8.43;4.40;;;;;;;11.02;100.00;102665.81;4942592;28;20378;-69
2021/10/07 06:07:32;;;;;;;8.52;4.65;;;;;;;10.98;100.00;102677.41;4944183;28;20058;-71
2021/10/07 06:10:01;;;;;;;12.95;5.55;;;;;;;10.91;100.00;102678.31;4946114;28;20083;-71
2021/10/07 06:12:29;;;;;;;15.43;8.05;;;;;;;10.86;100.00;102684.56;4934837;28;20641;-71
2021/10/07 06:14:56;;;;;;;15.30;5.60;;;;;;;10.80;100.00;102689.03;4948176;28;20070;-71
2021/10/07 06:17:24;;;;;;;13.35;6.25;;;;;;;10.75;100.00;102681.94;4942143;28;20047;-71
2021/10/07 06:19:55;;;;;;;11.05;4.43;;;;;;;10.72;100.00;102688.16;4940726;28;20130;-70
2021/10/07 06:22:23;;;;;;;10.20;4.60;;;;;;;10.69;100.00;102680.16;4952146;28;20583;-70
2021/10/07 06:24:52;;;;;;;11.50;4.90;;;;;;;10.64;100.00;102685.53;4942379;28;20577;-69
2021/10/07 06:27:22;;;;;;;12.80;4.63;;;;;;;10.55;100.00;102690.88;4944187;28;20472;-69
2021/10/07 06:29:50;;;;;;;11.13;4.53;;;;;;;10.53;100.00;102695.34;4948548;28;20043;-70
2021/10/07 06:32:18;;;;;;;10.80;4.85;;;;;;;10.52;100.00;102692.69;4942255;28;20057;-70
2021/10/07 06:34:46;;;;;;;9.77;5.20;;;;;;;10.50;100.00;102698.03;4951625;28;20104;-70
2021/10/07 06:37:15;;;;;;;10.52;4.72;;;;;;;10.44;100.00;102695.38;4942022;28;20046;-71
2021/10/07 06:39:43;;;;;;;10.82;4.72;;;;;;;10.39;100.00;102707.84;4940251;28;20050;-70
2021/10/07 06:42:11;;;;;;;12.05;6.35;;;;;;;10.36;100.00;102707.84;4942929;28;20102;-69
2021/10/07 06:44:40;;;;;;;15.48;7.43;;;;;;;10.40;100.00;102706.94;4943220;28;20055;-69
2021/10/07 06:47:08;;;;;;;14.77;6.07;;;;;;;10.34;100.00;102710.50;4950543;28;20085;-68
2021/10/07 06:50:00;;;;;;;12.95;5.63;;;;;;;10.33;100.00;102719.41;4946302;28;20137;-68
2021/10/07 06:52:28;;;;;;;12.18;5.93;;;;;;;10.33;100.00;102719.41;4941129;28;20086;-68
2021/10/07 06:54:56;;;;;;;10.98;5.47;;;;;;;10.29;100.00;102721.16;4947681;28;20074;-68
2021/10/07 06:57:24;;;;;;;15.00;5.28;;;;;;;10.29;100.00;102721.16;4940999;28;20100;-68
2021/10/07 06:59:53;;;;;;;14.40;6.10;;;;;;;10.35;100.00;102728.31;4942643;28;20085;-67
2021/10/07 07:02:21;;;;;;;12.70;6.35;;;;;;;10.37;100.00;102725.63;4949131;28;20550;-68
2021/10/07 07:04:49;;;;;;;11.73;5.90;;;;;;;10.34;100.00;102741.66;4950947;28;20137;-68
2021/10/07 07:07:20;;;;;;;13.93;6.78;;;;;;;10.35;100.00;102730.06;4945227;28;21330;-68
2021/10/07 07:09:48;;;;;;;12.20;6.35;;;;;;;10.36;100.00;102729.19;4945433;28;20324;-67
2021/10/07 07:12:36;;;;;;;14.57;6.90;;;;;;;10.45;100.00;102745.19;4945598;28;20224;-67
2021/10/07 07:15:06;;;;;;;15.52;7.30;;;;;;;10.53;100.00;102743.41;4946389;28;20053;-69
2021/10/07 07:17:34;;;;;;;15.82;7.85;;;;;;;10.59;100.00;102739.81;4946554;28;20133;-69
2021/10/07 07:20:01;;;;;;;16.17;7.43;;;;;;;10.77;100.00;102745.13;4942837;28;20271;-67
2021/10/07 07:22:29;;;;;;;15.45;5.93;;;;;;;10.84;100.00;102746.91;4947687;28;20094;-67
2021/10/07 07:24:57;;;;;;;18.02;6.78;;;;;;;10.99;100.00;102745.06;4951025;28;20055;-70
2021/10/07 07:27:25;;;;;;;16.58;7.13;;;;;;;11.03;100.00;102747.72;4941635;28;20444;-69
2021/10/07 07:29:54;;;;;;;16.50;6.82;;;;;;;11.06;100.00;102743.25;4952844;28;20055;-69
2021/10/07 07:32:23;;;;;;;17.42;7.63;;;;;;;11.16;100.00;102763.69;4951564;28;20051;-70
2021/10/07 07:34:51;;;;;;;17.77;8.07;;;;;;;11.35;100.00;102754.69;4946248;28;20051;-70
2021/10/07 07:37:21;;;;;;;20.75;8.63;;;;;;;11.35;100.00;102765.38;4950102;28;20051;-70
2021/10/07 07:39:49;;;;;;;21.77;8.88;;;;;;;11.43;100.00;102759.13;4949131;28;20058;-71
2021/10/07 07:42:16;;;;;;;21.20;8.52;;;;;;;11.54;100.00;102762.63;4942435;28;20054;-69
2021/10/07 07:44:45;;;;;;;21.00;7.72;;;;;;;11.67;100.00;102767.00;4948200;28;20105;-71
2021/10/07 07:47:12;;;;;;;24.90;8.15;;;;;;;11.86;100.00;102775.78;4949210;28;20126;-71
2021/10/07 07:49:42;;;;;;;20.15;6.70;;;;;;;11.99;100.00;102773.97;4950054;28;20063;-71
2021/10/07 07:52:10;;;;;;;17.95;7.10;;;;;;;12.10;100.00;102774.75;4947060;28;22114;-71
2021/10/07 07:54:38;;;;;;;22.70;6.30;;;;;;;12.18;100.00;102782.75;4947516;28;20055;-72
2021/10/07 07:57:07;;;;;;;18.10;7.65;;;;;;;12.32;100.00;102793.34;4947905;28;20148;-70
2021/10/07 07:59:34;;;;;;;20.35;7.05;;;;;;;12.49;100.00;102794.06;4945448;28;20078;-71
2021/10/07 08:02:02;;;;;;;23.13;7.40;;;;;;;12.59;100.00;102797.56;4944744;28;20101;-70
2021/10/07 08:04:30;;;;;;;16.85;7.45;;;;;;;12.74;100.00;102798.31;4949939;28;20089;-69
2021/10/07 08:07:00;;;;;;;20.92;7.38;;;;;;;12.82;100.00;102792.00;4943162;28;20548;-69
2021/10/07 08:09:28;;;;;;;19.05;6.95;;;;;;;12.93;100.00;102799.91;4952867;28;20057;-71
2021/10/07 08:11:56;;;;;;;21.00;7.40;;;;;;;13.00;100.00;102796.25;4945947;28;20078;-70
2021/10/07 08:14:23;;;;;;;17.45;7.85;;;;;;;13.10;100.00;102801.50;4948107;28;20117;-70
2021/10/07 08:17:17;;;;;;;21.48;7.15;;;;;;;13.18;100.00;102805.00;4946061;28;20058;-68
2021/10/07 08:19:46;;;;;;;14.80;7.13;;;;;;;13.22;100.00;102801.38;4939007;28;20073;-68
2021/10/07 08:22:16;;;;;;;19.42;6.82;;;;;;;13.30;100.00;102802.16;4946650;28;20054;-68
2021/10/07 08:24:45;;;;;;;20.55;6.95;;;;;;;13.39;100.00;102796.72;4946393;28;20069;-68
2021/10/07 08:27:14;;;;;;;17.10;6.10;;;;;;;13.50;100.00;102799.28;4949825;28;20058;-68
2021/10/07 08:29:43;;;;;;;13.90;6.68;;;;;;;13.59;100.00;102808.97;4950100;28;20054;-68
2021/10/07 08:32:11;;;;;;;11.93;4.78;;;;;;;13.57;100.00;102809.00;4943139;28;20043;-68
2021/10/07 08:34:39;;;;;;;16.17;5.00;;;;;;;13.66;100.00;102807.97;4947171;28;20505;-69
2021/10/07 08:37:07;;;;;;;13.40;4.50;;;;;;;13.69;100.00;102810.63;4949748;28;20453;-69
2021/10/07 08:39:37;;;;;;;12.02;3.72;;;;;;;13.79;100.00;102814.03;4949591;28;20543;-68
2021/10/07 08:42:05;;;;;;;12.70;4.03;;;;;;;13.80;100.00;102815.84;4945841;28;20078;-68
2021/10/07 08:44:33;;;;;;;11.27;4.57;;;;;;;13.88;100.00;102815.75;4943109;28;20176;-68
2021/10/07 08:47:01;;;;;;;9.35;3.83;;;;;;;13.94;100.00;102821.88;4946282;28;20116;-68
2021/10/07 08:49:35;;;;;;;9.85;3.38;;;;;;;13.89;100.00;102817.50;4942550;28;20043;-69
2021/10/07 08:52:04;;;;;;;13.80;3.97;;;;;;;13.96;100.00;102819.16;4941452;28;20657;-70
2021/10/07 08:54:34;;;;;;;10.77;4.03;;;;;;;14.09;100.00;102823.44;4944595;28;20451;-69
2021/10/07 08:57:04;;;;;;;15.40;4.43;;;;;;;14.11;100.00;102827.00;4948843;28;21514;-70
2021/10/07 08:59:32;;;;;;;13.50;3.83;;;;;;;14.17;100.00;102834.09;4948795;28;20046;-71
2021/10/07 09:02:01;;;;;;;13.23;4.20;;;;;;;14.21;100.00;102822.38;4943083;28;20142;-71
2021/10/07 09:04:33;;;;;;;7.65;2.83;;;;;;;14.14;100.00;102826.94;4947586;28;20050;-71
2021/10/07 09:07:07;;;;;;;11.48;3.63;;;;;;;14.19;100.00;102821.53;4942781;28;20157;-71
2021/10/07 09:09:38;;;;;;;10.60;3.17;;;;;;;14.26;100.00;102820.50;4946952;28;20050;-71
2021/10/07 09:12:09;;;;;;;10.43;3.60;;;;;;;14.29;100.00;102825.81;4944078;28;20222;-71
2021/10/07 09:14:41;;;;;;;10.75;3.28;;;;;;;14.48;100.00;102825.53;4949229;28;20062;-71
2021/10/07 09:17:10;;;;;;;12.35;3.95;;;;;;;14.37;100.00;102829.28;4946958;28;20055;-69
2021/10/07 09:19:43;;;;;;;12.33;3.63;;;;;;;14.36;100.00;102824.81;4945886;28;20046;-71
2021/10/07 09:22:17;;;;;;;9.18;3.33;;;;;;;14.53;100.00;102821.84;4943397;28;20093;-71
2021/10/07 09:24:47;;;;;;;8.55;3.10;;;;;;;14.59;100.00;102822.69;4941327;28;20546;-71
2021/10/07 09:27:19;;;;;;;9.30;3.20;;;;;;;14.60;100.00;102821.78;4945728;28;20096;-71
2021/10/07 09:29:52;;;;;;;8.82;3.33;;;;;;;14.63;100.00;102819.91;4948649;28;20046;-72
2021/10/07 09:32:26;;;;;;;13.23;3.60;;;;;;;14.80;100.00;102825.00;4949941;28;20051;-71
2021/10/07 09:34:55;;;;;;;9.60;4.03;;;;;;;14.88;100.00;102825.75;4947612;28;20420;-72
2021/10/07 09:37:27;;;;;;;15.77;3.80;;;;;;;14.85;100.00;102822.22;4944855;28;20314;-72
2021/10/07 09:39:57;;;;;;;11.95;3.63;;;;;;;14.99;100.00;102820.16;4945784;28;20047;-70
2021/10/07 09:42:29;;;;;;;8.88;3.50;;;;;;;15.18;100.00;102826.06;4944850;28;20050;-72
2021/10/07 09:45:07;;;;;;;10.35;3.00;;;;;;;15.21;100.00;102830.50;4944027;28;20145;-72
2021/10/07 09:47:37;;;;;;;11.10;3.22;;;;;;;15.22;99.42;102826.88;4944991;28;20082;-73
2021/10/07 09:50:27;;;;;;;8.10;2.90;;;;;;;15.24;97.92;102833.13;4950182;28;20496;-73
2021/10/07 09:53:01;;;;;;;3.40;2.20;;;;;;;15.48;100.00;102826.34;4944541;28;20167;-72
2021/10/07 09:55:33;;;;;;;7.45;2.80;;;;;;;15.44;98.25;102827.31;4950627;28;20051;-71
2021/10/07 09:58:05;;;;;;;9.43;2.63;;;;;;;15.40;96.68;102821.13;4943286;28;20050;-72
2021/10/07 10:00:38;;;;;;;8.70;2.60;;;;;;;15.34;95.35;102833.81;4945589;28;20133;-72
2021/10/07 10:03:07;;;;;;;7.38;2.42;;;;;;;15.35;94.60;102835.59;4945129;28;20200;-72
2021/10/07 10:05:37;;;;;;;5.90;2.42;;;;;;;15.30;93.49;102833.88;4945247;28;20113;-72
2021/10/07 10:08:07;;;;;;;8.55;2.63;;;;;;;15.46;96.38;102834.47;4939952;28;21118;-75
2021/10/07 10:10:38;;;;;;;8.57;2.90;;;;;;;15.52;95.90;102837.94;4946904;28;20094;-72
2021/10/07 10:13:08;;;;;;;6.32;2.30;;;;;;;15.68;92.52;102826.81;4940584;28;20100;-72
2021/10/07 10:15:37;;;;;;;7.95;2.50;;;;;;;15.96;94.76;102828.03;4948093;28;20606;-72
2021/10/07 10:18:07;;;;;;;10.23;2.60;;;;;;;15.78;88.17;102830.22;4945193;28;20133;-71
2021/10/07 10:20:38;;;;;;;6.53;2.67;;;;;;;15.98;93.68;102821.66;4938863;28;20272;-72
2021/10/07 10:23:10;;;;;;;8.73;2.58;;;;;;;16.07;89.20;102825.94;4946590;28;20323;-72
2021/10/07 10:25:52;;;;;;;5.15;2.00;;;;;;;16.01;86.08;102826.09;4943652;28;20153;-73
2021/10/07 10:28:31;;;;;;;6.13;2.10;;;;;;;16.39;82.59;102827.84;4947060;28;20125;-69
2021/10/07 10:31:04;;;;;;;6.25;2.50;;;;;;;16.50;83.50;102822.22;4946852;28;20106;-70
2021/10/07 10:34:09;;;;;;;10.35;2.97;;;;;;;17.02;88.06;102833.44;4952322;28;20085;-71
2021/10/07 10:36:45;;;;;;;9.00;2.67;;;;;;;17.48;88.79;102824.03;4944200;28;20782;-74
2021/10/07 10:39:18;;;;;;;5.63;2.28;;;;;;;17.29;86.18;102828.19;4954091;28;20508;-71
2021/10/07 10:41:51;;;;;;;10.55;2.65;;;;;;;16.86;78.93;102832.09;4946857;28;20669;-71
2021/10/07 10:44:41;;;;;;;9.23;1.98;;;;;;;17.44;84.20;102837.66;4943171;28;20815;-71
2021/10/07 10:47:24;;;;;;;6.07;2.00;;;;;;;17.65;79.70;102828.91;4949140;28;20055;-70
2021/10/07 10:49:58;;;;;;;12.30;2.65;;;;;;;17.61;81.35;102829.94;4945041;28;20081;-70
2021/10/07 10:52:27;;;;;;;6.90;2.53;;;;;;;17.61;82.46;102832.66;4948630;28;20082;-71
2021/10/07 10:54:58;;;;;;;7.03;2.40;;;;;;;17.59;85.74;102836.31;4945490;28;20499;-71
2021/10/07 10:57:29;;;;;;;9.73;2.63;;;;;;;17.21;83.71;102830.22;4949988;28;20133;-72
2021/10/07 11:00:11;;;;;;;7.53;2.80;;;;;;;16.77;82.10;102841.25;4946979;28;20137;-73
2021/10/07 11:02:40;;;;;;;7.20;2.75;;;;;;;16.78;84.98;102837.66;4953353;28;20137;-72
2021/10/07 11:05:17;;;;;;;7.65;2.45;;;;;;;16.92;84.35;102842.72;4952624;28;20069;-72
2021/10/07 11:07:47;;;;;;;8.32;2.42;;;;;;;16.86;83.33;102842.91;4947580;28;20137;-71
2021/10/07 11:10:18;;;;;;;6.40;2.28;;;;;;;16.78;82.79;102845.75;4952143;28;20134;-71
2021/10/07 11:12:51;;;;;;;9.65;2.65;;;;;;;16.39;78.16;102838.63;4950023;28;20088;-71
2021/10/07 11:15:22;;;;;;;6.65;2.20;;;;;;;16.58;84.84;102846.25;4952118;28;20054;-71
2021/10/07 11:17:52;;;;;;;7.32;2.58;;;;;;;16.81;83.25;102845.66;4946743;28;20472;-71
2021/10/07 11:20:23;;;;;;;9.40;2.67;;;;;;;17.18;82.57;102842.00;4951773;28;20058;-71
2021/10/07 11:23:11;;;;;;;7.03;2.55;;;;;;;17.16;79.49;102844.75;4950681;28;20057;-71
2021/10/07 11:26:04;;;;;;;5.45;2.10;;;;;;;17.15;80.43;102844.78;4951554;28;20089;-71
2021/10/07 11:28:37;;;;;;;7.55;2.72;;;;;;;17.05;81.47;102846.84;4952275;28;20061;-71
2021/10/07 11:31:32;;;;;;;9.27;2.45;;;;;;;17.26;83.74;102845.34;4947376;28;20113;-71